Time;durP1;ratioP1;P1;durP2;ratioP2;P2;SDS_P1;SDS_P2;PMS_P1;PMS_P2;Temp;Humidity;BMP_temperature;BMP_pressure;BME280_temperature;BME280_humidity;BME280_pressure;Samples;Min_cycle;Max_cycle;Signal;HPM_P1;HPM_P2
2023/09/19 00:00:27;;;;;;;2.00;1.40;;;;;;;;;;6185640;23;20013;-91
2023/09/19 00:02:59;;;;;;;2.38;1.75;;;;;;;;;;6184840;23;20013;-90
2023/09/19 00:05:31;;;;;;;5.75;1.83;;;;;;;;;;6161992;23;20033;-91
2023/09/19 00:08:00;;;;;;;6.80;2.22;;;;;;;;;;6159991;23;20471;-89
2023/09/19 00:10:31;;;;;;;2.55;1.48;;;;;;;;;;6184745;23;20017;-90
2023/09/19 00:12:59;;;;;;;2.65;1.65;;;;;;;;;;6212368;23;20017;-91
2023/09/19 00:15:28;;;;;;;1.88;1.20;;;;;;;;;;6161647;23;20020;-90
2023/09/19 00:17:59;;;;;;;2.83;1.92;;;;;;;;;;6185421;23;20031;-91
2023/09/19 00:20:26;;;;;;;5.95;1.83;;;;;;;;;;6221673;23;20020;-89
2023/09/19 00:22:54;;;;;;;2.70;1.27;;;;;;;;;;6160649;23;20016;-91
2023/09/19 00:25:27;;;;;;;3.65;2.05;;;;;;;;;;6187355;23;20020;-90
2023/09/19 00:27:55;;;;;;;1.77;1.50;;;;;;;;;;6187565;23;20016;-90
2023/09/19 00:30:24;;;;;;;2.70;1.52;;;;;;;;;;6163750;23;20356;-91
2023/09/19 00:32:54;;;;;;;3.08;1.58;;;;;;;;;;6187614;23;20009;-89
2023/09/19 00:35:24;;;;;;;2.53;1.80;;;;;;;;;;6163711;23;20020;-90
2023/09/19 00:37:55;;;;;;;2.55;2.05;;;;;;;;;;6187351;23;20028;-89
2023/09/19 00:40:23;;;;;;;8.48;2.70;;;;;;;;;;6189683;23;20020;-91
2023/09/19 00:42:51;;;;;;;2.70;1.60;;;;;;;;;;6189062;23;20479;-89
2023/09/19 00:45:20;;;;;;;5.85;2.40;;;;;;;;;;6224872;23;20019;-90
2023/09/19 00:47:52;;;;;;;7.13;2.45;;;;;;;;;;6188801;23;20020;-90
2023/09/19 00:50:21;;;;;;;3.30;2.05;;;;;;;;;;6164861;23;20023;-90
2023/09/19 00:52:55;;;;;;;3.85;2.15;;;;;;;;;;6196191;23;20015;-91
2023/09/19 00:55:27;;;;;;;3.60;1.90;;;;;;;;;;6203020;23;20027;-91
2023/09/19 00:57:57;;;;;;;6.28;2.10;;;;;;;;;;6203924;23;20012;-91
2023/09/19 01:00:24;;;;;;;3.40;2.08;;;;;;;;;;6198117;23;20043;-90
2023/09/19 01:02:53;;;;;;;2.92;1.90;;;;;;;;;;6190970;23;20028;-91
2023/09/19 01:05:20;;;;;;;3.03;2.15;;;;;;;;;;6164654;23;20023;-92
2023/09/19 01:07:53;;;;;;;7.53;2.05;;;;;;;;;;6197604;23;20391;-91
2023/09/19 01:10:21;;;;;;;2.80;2.50;;;;;;;;;;6187630;23;20027;-91
2023/09/19 01:12:56;;;;;;;4.70;2.47;;;;;;;;;;6162283;23;20012;-90
2023/09/19 01:15:33;;;;;;;4.82;3.50;;;;;;;;;;6188133;23;20027;-91
2023/09/19 01:18:08;;;;;;;2.95;2.20;;;;;;;;;;6197560;23;20023;-91
2023/09/19 01:20:41;;;;;;;3.25;2.60;;;;;;;;;;6195699;23;20013;-91
2023/09/19 01:23:18;;;;;;;3.05;2.38;;;;;;;;;;6163952;23;20016;-91
2023/09/19 01:26:19;;;;;;;4.65;1.92;;;;;;;;;;6198133;23;20032;-90
2023/09/19 01:28:57;;;;;;;3.25;2.78;;;;;;;;;;6163418;23;20024;-91
2023/09/19 01:31:26;;;;;;;5.22;2.10;;;;;;;;;;6217274;23;20039;-90
2023/09/19 01:34:00;;;;;;;3.72;1.83;;;;;;;;;;6162471;23;20036;-90
2023/09/19 01:36:34;;;;;;;3.88;2.08;;;;;;;;;;6162570;23;20024;-91
2023/09/19 01:39:09;;;;;;;4.32;2.42;;;;;;;;;;6187223;23;20029;-90
2023/09/19 01:41:46;;;;;;;3.70;1.63;;;;;;;;;;6162687;23;20036;-90
2023/09/19 01:44:25;;;;;;;3.90;2.15;;;;;;;;;;6196681;23;20017;-91
2023/09/19 01:46:56;;;;;;;3.03;1.60;;;;;;;;;;6188465;23;20024;-90
2023/09/19 01:49:31;;;;;;;1.58;1.45;;;;;;;;;;6188185;23;20013;-91
2023/09/19 01:52:06;;;;;;;4.47;2.03;;;;;;;;;;6189521;23;20017;-90
2023/09/19 01:54:43;;;;;;;2.00;1.25;;;;;;;;;;6163331;23;20017;-92
2023/09/19 01:57:16;;;;;;;1.83;1.60;;;;;;;;;;6162456;23;20017;-90
2023/09/19 01:59:48;;;;;;;4.45;2.03;;;;;;;;;;6197091;23;20016;-90
2023/09/19 02:02:22;;;;;;;2.15;1.23;;;;;;;;;;6186899;23;20482;-90
2023/09/19 02:04:50;;;;;;;2.28;1.13;;;;;;;;;;6162715;23;20027;-91
2023/09/19 02:07:19;;;;;;;3.50;1.15;;;;;;;;;;6162572;23;20031;-90
2023/09/19 02:09:47;;;;;;;4.78;1.80;;;;;;;;;;6188479;23;20506;-91
2023/09/19 02:12:15;;;;;;;2.28;1.70;;;;;;;;;;6187884;23;20020;-90
2023/09/19 02:14:43;;;;;;;2.38;1.85;;;;;;;;;;6162377;23;20028;-89
2023/09/19 02:17:11;;;;;;;1.92;1.17;;;;;;;;;;6162577;23;20024;-90
2023/09/19 02:19:40;;;;;;;3.97;1.67;;;;;;;;;;6186055;23;20013;-90
2023/09/19 02:22:10;;;;;;;3.33;1.35;;;;;;;;;;6163167;23;20363;-90
2023/09/19 02:24:38;;;;;;;5.18;1.65;;;;;;;;;;6187339;23;20013;-89
2023/09/19 02:27:05;;;;;;;3.28;1.60;;;;;;;;;;6213417;23;20025;-90
2023/09/19 02:29:34;;;;;;;7.55;2.42;;;;;;;;;;6192352;23;20020;-90
2023/09/19 02:32:02;;;;;;;2.72;1.55;;;;;;;;;;6195218;23;20017;-90
2023/09/19 02:34:30;;;;;;;1.90;1.60;;;;;;;;;;6161470;23;20024;-91
2023/09/19 02:37:01;;;;;;;4.32;1.50;;;;;;;;;;6162922;23;20021;-91
2023/09/19 02:39:36;;;;;;;3.22;1.60;;;;;;;;;;6162185;23;20025;-91
2023/09/19 02:42:05;;;;;;;4.80;2.17;;;;;;;;;;6161654;23;20039;-90
2023/09/19 02:44:38;;;;;;;3.67;1.20;;;;;;;;;;6163191;23;20031;-90
2023/09/19 02:47:05;;;;;;;2.63;1.33;;;;;;;;;;6162691;23;20020;-91
2023/09/19 02:49:36;;;;;;;2.50;1.58;;;;;;;;;;6187942;23;20016;-91
2023/09/19 02:52:07;;;;;;;4.80;1.85;;;;;;;;;;6189268;23;20475;-90
2023/09/19 02:54:37;;;;;;;2.63;1.58;;;;;;;;;;6197607;23;20015;-90
2023/09/19 02:57:06;;;;;;;3.67;1.52;;;;;;;;;;6187982;23;20017;-91
2023/09/19 02:59:37;;;;;;;3.13;1.60;;;;;;;;;;6187851;23;20013;-92
2023/09/19 03:02:05;;;;;;;2.63;1.45;;;;;;;;;;6163568;23;20017;-91
2023/09/19 03:04:35;;;;;;;2.63;1.77;;;;;;;;;;6196281;23;20013;-91
2023/09/19 03:07:04;;;;;;;2.50;1.48;;;;;;;;;;6187262;23;20020;-91
2023/09/19 03:09:36;;;;;;;2.80;1.67;;;;;;;;;;6162566;23;20036;-89
2023/09/19 03:12:06;;;;;;;2.33;1.35;;;;;;;;;;6162816;23;20028;-90
2023/09/19 03:14:35;;;;;;;3.47;1.92;;;;;;;;;;6185594;23;20017;-90
2023/09/19 03:17:04;;;;;;;5.35;1.67;;;;;;;;;;6162962;23;20027;-90
2023/09/19 03:19:33;;;;;;;3.35;1.88;;;;;;;;;;6162055;23;20027;-91
2023/09/19 03:22:03;;;;;;;4.43;1.85;;;;;;;;;;6189142;23;20016;-90
2023/09/19 03:24:37;;;;;;;3.75;1.58;;;;;;;;;;6186592;23;20013;-91
2023/09/19 03:27:06;;;;;;;;;;;;;;;;;;6197188;23;20020;-91
2023/09/19 03:29:37;;;;;;;3.10;2.58;;;;;;;;;;6161266;23;19923;-91
2023/09/19 03:32:06;;;;;;;3.03;1.80;;;;;;;;;;6160468;23;20017;-91
2023/09/19 03:34:34;;;;;;;4.07;1.92;;;;;;;;;;6160277;23;20468;-91
2023/09/19 03:37:02;;;;;;;2.72;1.92;;;;;;;;;;6136670;23;20359;-91
2023/09/19 03:39:30;;;;;;;2.95;1.45;;;;;;;;;;6187096;23;20013;-90
2023/09/19 03:41:59;;;;;;;2.83;2.03;;;;;;;;;;6161825;23;20028;-91
2023/09/19 03:44:26;;;;;;;2.28;1.75;;;;;;;;;;6161773;23;20337;-91
2023/09/19 03:46:55;;;;;;;3.45;1.88;;;;;;;;;;6213197;23;20494;-90
2023/09/19 03:49:25;;;;;;;2.35;1.92;;;;;;;;;;6162292;23;20032;-90
2023/09/19 03:51:53;;;;;;;2.83;1.88;;;;;;;;;;6162405;23;20024;-91
2023/09/19 03:54:20;;;;;;;2.97;1.83;;;;;;;;;;6186887;23;20016;-90
2023/09/19 03:56:50;;;;;;;4.72;1.67;;;;;;;;;;6162609;23;20032;-90
2023/09/19 03:59:21;;;;;;;2.17;1.83;;;;;;;;;;6162563;23;20016;-89
2023/09/19 04:01:50;;;;;;;2.88;2.10;;;;;;;;;;6188932;23;20009;-89
2023/09/19 04:04:18;;;;;;;3.75;1.67;;;;;;;;;;6189949;23;20008;-90
2023/09/19 04:06:48;;;;;;;4.38;2.42;;;;;;;;;;6203009;23;20013;-90
2023/09/19 04:09:18;;;;;;;4.63;3.05;;;;;;;;;;6174261;23;20024;-90
2023/09/19 04:11:49;;;;;;;2.20;2.00;;;;;;;;;;6203726;23;20027;-90
2023/09/19 04:14:20;;;;;;;3.67;2.58;;;;;;;;;;6212790;23;20018;-89
2023/09/19 04:16:48;;;;;;;4.50;2.03;;;;;;;;;;6174455;23;20024;-89
2023/09/19 04:19:15;;;;;;;2.80;2.35;;;;;;;;;;6166803;23;20028;-90
2023/09/19 04:21:46;;;;;;;2.92;2.38;;;;;;;;;;6188360;23;20021;-91
2023/09/19 04:24:19;;;;;;;3.90;3.03;;;;;;;;;;6164804;23;20013;-89
2023/09/19 04:26:46;;;;;;;5.45;2.60;;;;;;;;;;6200420;23;20024;-91
2023/09/19 04:29:14;;;;;;;4.22;2.67;;;;;;;;;;6189113;23;20017;-90
2023/09/19 04:31:43;;;;;;;3.58;2.28;;;;;;;;;;6216412;23;20013;-90
2023/09/19 04:34:16;;;;;;;3.55;2.00;;;;;;;;;;6215009;23;20021;-90
2023/09/19 04:36:45;;;;;;;3.30;2.28;;;;;;;;;;6198989;23;20047;-90
2023/09/19 04:39:13;;;;;;;4.22;2.05;;;;;;;;;;6216812;23;20013;-90
2023/09/19 04:41:41;;;;;;;4.47;2.38;;;;;;;;;;6163905;23;20025;-89
2023/09/19 04:44:08;;;;;;;3.38;2.22;;;;;;;;;;6189736;23;20013;-90
2023/09/19 04:46:36;;;;;;;6.03;2.97;;;;;;;;;;6188265;23;20510;-88
2023/09/19 04:49:07;;;;;;;3.83;2.30;;;;;;;;;;6187327;23;20020;-90
2023/09/19 04:51:36;;;;;;;3.53;2.35;;;;;;;;;;6191840;23;20356;-90
2023/09/19 04:54:03;;;;;;;4.97;3.35;;;;;;;;;;6162103;23;20023;-89
2023/09/19 04:56:33;;;;;;;5.43;2.72;;;;;;;;;;6214798;23;20016;-89
2023/09/19 04:59:01;;;;;;;2.70;2.22;;;;;;;;;;6188868;23;20024;-91
2023/09/19 05:01:31;;;;;;;2.88;2.65;;;;;;;;;;6187927;23;20435;-89
2023/09/19 05:04:04;;;;;;;3.78;2.65;;;;;;;;;;6213368;23;20016;-90
2023/09/19 05:06:35;;;;;;;7.28;3.25;;;;;;;;;;6187513;23;20463;-90
2023/09/19 05:09:05;;;;;;;9.43;4.40;;;;;;;;;;6187185;23;20017;-89
2023/09/19 05:11:33;;;;;;;6.82;3.53;;;;;;;;;;6163811;23;20016;-90
2023/09/19 05:14:03;;;;;;;4.93;3.53;;;;;;;;;;6163329;23;20016;-89
2023/09/19 05:16:32;;;;;;;5.03;3.40;;;;;;;;;;6188083;23;20364;-90
2023/09/19 05:19:04;;;;;;;4.80;3.67;;;;;;;;;;6188709;23;20028;-91
2023/09/19 05:21:35;;;;;;;3.58;2.97;;;;;;;;;;6189654;23;20360;-90
2023/09/19 05:24:06;;;;;;;3.00;2.67;;;;;;;;;;6188666;23;20028;-90
2023/09/19 05:26:36;;;;;;;7.03;3.42;;;;;;;;;;6189724;23;20020;-90
2023/09/19 05:29:07;;;;;;;5.72;2.88;;;;;;;;;;6215803;23;20614;-90
2023/09/19 05:31:36;;;;;;;3.17;2.88;;;;;;;;;;6216178;23;20016;-90
2023/09/19 05:34:06;;;;;;;4.15;2.63;;;;;;;;;;6164843;23;20096;-89
2023/09/19 05:36:35;;;;;;;5.38;3.28;;;;;;;;;;6189297;23;20018;-90
2023/09/19 05:39:03;;;;;;;6.97;3.58;;;;;;;;;;6163544;23;20016;-91
2023/09/19 05:41:31;;;;;;;5.18;3.67;;;;;;;;;;6164842;23;20021;-90
2023/09/19 05:43:59;;;;;;;3.53;3.08;;;;;;;;;;6216756;23;20348;-90
2023/09/19 05:46:29;;;;;;;3.05;2.63;;;;;;;;;;6189687;23;20024;-90
2023/09/19 05:48:57;;;;;;;3.47;3.00;;;;;;;;;;6188120;23;20016;-91
2023/09/19 05:51:26;;;;;;;2.95;2.65;;;;;;;;;;6215223;23;20013;-91
2023/09/19 05:53:57;;;;;;;5.30;3.00;;;;;;;;;;6163897;23;20026;-90
2023/09/19 05:56:25;;;;;;;5.07;3.17;;;;;;;;;;6187998;23;20017;-89
2023/09/19 05:58:57;;;;;;;4.85;3.20;;;;;;;;;;6188538;23;20452;-91
2023/09/19 06:01:28;;;;;;;;;;;;;;;;;;6164863;23;20020;-91
2023/09/19 06:03:55;;;;;;;7.38;2.67;;;;;;;;;;6186576;23;20370;-90
2023/09/19 06:06:25;;;;;;;4.90;2.92;;;;;;;;;;6188113;23;20016;-90
2023/09/19 06:08:52;;;;;;;3.55;2.33;;;;;;;;;;6186919;23;20016;-90
2023/09/19 06:11:21;;;;;;;2.40;2.15;;;;;;;;;;6163522;23;20045;-90
2023/09/19 06:13:51;;;;;;;5.47;2.17;;;;;;;;;;6187666;23;20492;-89
2023/09/19 06:16:19;;;;;;;4.85;2.65;;;;;;;;;;6188061;23;20019;-89
2023/09/19 06:18:47;;;;;;;5.43;2.15;;;;;;;;;;6187188;23;20021;-89
2023/09/19 06:21:16;;;;;;;4.53;2.47;;;;;;;;;;6188216;23;20013;-91
2023/09/19 06:23:43;;;;;;;4.90;3.72;;;;;;;;;;6186647;23;20016;-91
2023/09/19 06:26:13;;;;;;;7.05;3.30;;;;;;;;;;6161436;23;20032;-89
2023/09/19 06:28:44;;;;;;;3.42;2.63;;;;;;;;;;6187090;23;20021;-90
2023/09/19 06:31:12;;;;;;;3.95;2.47;;;;;;;;;;6162319;23;20021;-91
2023/09/19 06:33:40;;;;;;;5.80;2.58;;;;;;;;;;6165120;23;20138;-90
2023/09/19 06:36:09;;;;;;;11.82;2.42;;;;;;;;;;6200309;23;20016;-91
2023/09/19 06:38:38;;;;;;;3.35;2.55;;;;;;;;;;6203489;23;20017;-89
2023/09/19 06:41:07;;;;;;;5.40;3.50;;;;;;;;;;6204351;23;20130;-89
2023/09/19 06:43:35;;;;;;;4.65;2.33;;;;;;;;;;6170231;23;20017;-90
2023/09/19 06:46:07;;;;;;;3.92;2.20;;;;;;;;;;6189778;23;20035;-91
2023/09/19 06:48:35;;;;;;;5.30;3.00;;;;;;;;;;6188447;23;20017;-90
2023/09/19 06:51:05;;;;;;;4.50;2.47;;;;;;;;;;6216136;23;20040;-91
2023/09/19 06:53:32;;;;;;;4.85;2.50;;;;;;;;;;6162833;23;20017;-90
2023/09/19 06:56:02;;;;;;;8.63;1.95;;;;;;;;;;6187669;23;20024;-89
2023/09/19 06:58:29;;;;;;;3.28;2.20;;;;;;;;;;6187495;23;20023;-90
2023/09/19 07:01:03;;;;;;;3.08;2.53;;;;;;;;;;6212757;23;20023;-90
2023/09/19 07:03:33;;;;;;;2.60;2.08;;;;;;;;;;6187365;23;20017;-90
2023/09/19 07:06:00;;;;;;;4.80;2.40;;;;;;;;;;6163148;23;20024;-91
2023/09/19 07:08:33;;;;;;;3.95;2.08;;;;;;;;;;6163058;23;20359;-93
2023/09/19 07:11:01;;;;;;;4.30;2.25;;;;;;;;;;6214928;23;20024;-92
2023/09/19 07:13:28;;;;;;;5.38;2.80;;;;;;;;;;6194698;23;20031;-90
2023/09/19 07:15:56;;;;;;;4.93;2.95;;;;;;;;;;6226044;23;20370;-93
2023/09/19 07:18:24;;;;;;;2.50;2.17;;;;;;;;;;6178647;23;20020;-91
2023/09/19 07:21:00;;;;;;;4.63;2.60;;;;;;;;;;6196894;23;20028;-90
2023/09/19 07:23:34;;;;;;;5.45;1.73;;;;;;;;;;6163022;23;20464;-92
2023/09/19 07:26:05;;;;;;;2.33;2.13;;;;;;;;;;6223532;23;20019;-91
2023/09/19 07:28:32;;;;;;;6.95;2.40;;;;;;;;;;6160924;23;20032;-91
2023/09/19 07:31:03;;;;;;;3.55;2.25;;;;;;;;;;6160331;23;20017;-92
2023/09/19 07:33:31;;;;;;;4.85;2.50;;;;;;;;;;6187216;23;20132;-91
2023/09/19 07:36:03;;;;;;;4.40;1.90;;;;;;;;;;6189288;23;20024;-92
2023/09/19 07:38:32;;;;;;;2.92;2.00;;;;;;;;;;6188670;23;20030;-90
2023/09/19 07:41:02;;;;;;;2.55;1.88;;;;;;;;;;6164078;23;20021;-91
2023/09/19 07:43:29;;;;;;;4.00;2.47;;;;;;;;;;6189198;23;20088;-92
2023/09/19 07:46:05;;;;;;;4.72;2.35;;;;;;;;;;6163249;23;20017;-91
2023/09/19 07:48:35;;;;;;;2.78;1.83;;;;;;;;;;6226087;23;20013;-91
2023/09/19 07:51:04;;;;;;;6.47;1.52;;;;;;;;;;6188859;23;20032;-92
2023/09/19 07:53:35;;;;;;;2.55;2.35;;;;;;;;;;6189007;23;20020;-90
2023/09/19 07:56:04;;;;;;;3.65;1.60;;;;;;;;;;6225626;23;20032;-92
2023/09/19 07:58:33;;;;;;;2.33;1.60;;;;;;;;;;6161344;23;20031;-92
2023/09/19 08:01:10;;;;;;;2.33;1.27;;;;;;;;;;6188903;23;20024;-92
2023/09/19 08:03:41;;;;;;;2.60;1.67;;;;;;;;;;6188610;23;20020;-92
2023/09/19 08:06:19;;;;;;;2.78;1.67;;;;;;;;;;6163237;23;20020;-92
2023/09/19 08:08:54;;;;;;;2.75;1.33;;;;;;;;;;6193184;23;20023;-90
2023/09/19 08:11:24;;;;;;;4.15;2.08;;;;;;;;;;6188153;23;20032;-91
2023/09/19 08:13:52;;;;;;;5.35;1.40;;;;;;;;;;6214945;23;20017;-90
2023/09/19 08:16:24;;;;;;;2.85;1.85;;;;;;;;;;6189326;23;20377;-91
2023/09/19 08:18:55;;;;;;;4.15;1.50;;;;;;;;;;6210888;22;20007;-92
2023/09/19 08:21:29;;;;;;;5.95;2.13;;;;;;;;;;6188698;22;20004;-90
2023/09/19 08:23:57;;;;;;;2.97;1.73;;;;;;;;;;6181774;23;20025;-90
2023/09/19 08:26:24;;;;;;;1.95;0.90;;;;;;;;;;6199567;23;20016;-90
2023/09/19 08:28:55;;;;;;;2.85;1.23;;;;;;;;;;6165492;23;20618;-91
2023/09/19 08:31:23;;;;;;;1.83;0.88;;;;;;;;;;6188822;23;20012;-92
2023/09/19 08:33:55;;;;;;;3.10;1.70;;;;;;;;;;6215230;23;20017;-90
2023/09/19 08:36:23;;;;;;;3.92;1.77;;;;;;;;;;6190351;23;20028;-91
2023/09/19 08:38:52;;;;;;;4.93;1.90;;;;;;;;;;6188500;23;20017;-90
2023/09/19 08:41:22;;;;;;;3.05;1.15;;;;;;;;;;6163829;23;20363;-90
2023/09/19 08:43:55;;;;;;;1.95;1.40;;;;;;;;;;6199422;23;20017;-91
2023/09/19 08:46:26;;;;;;;3.47;1.45;;;;;;;;;;6162566;23;20020;-90
2023/09/19 08:48:59;;;;;;;2.72;1.63;;;;;;;;;;6162595;23;20024;-90
2023/09/19 08:51:32;;;;;;;3.55;1.65;;;;;;;;;;6164003;23;20017;-91
2023/09/19 08:54:05;;;;;;;16.65;2.22;;;;;;;;;;6187695;23;20020;-91
2023/09/19 08:56:33;;;;;;;2.15;1.27;;;;;;;;;;6187743;23;20017;-92
2023/09/19 08:59:02;;;;;;;3.67;1.50;;;;;;;;;;6188104;23;20059;-92
2023/09/19 09:01:33;;;;;;;2.97;1.38;;;;;;;;;;6187534;23;20024;-91
2023/09/19 09:04:12;;;;;;;3.58;1.48;;;;;;;;;;6215335;23;20035;-92
2023/09/19 09:06:43;;;;;;;2.03;1.30;;;;;;;;;;6187118;23;20355;-90
2023/09/19 09:09:12;;;;;;;2.80;1.80;;;;;;;;;;6165432;23;20027;-91
2023/09/19 09:11:41;;;;;;;3.50;1.20;;;;;;;;;;6202454;23;20035;-92
2023/09/19 09:14:09;;;;;;;6.13;1.95;;;;;;;;;;6176608;23;20077;-92
2023/09/19 09:16:37;;;;;;;8.73;2.67;;;;;;;;;;6166792;23;20016;-93
2023/09/19 09:19:07;;;;;;;2.25;1.60;;;;;;;;;;6167966;23;20481;-92
2023/09/19 09:21:37;;;;;;;2.47;1.98;;;;;;;;;;6230396;23;20017;-91
2023/09/19 09:24:30;;;;;;;2.40;1.48;;;;;;;;;;6200128;23;20024;-91
2023/09/19 09:26:58;;;;;;;3.85;1.50;;;;;;;;;;6161817;23;20019;-92
2023/09/19 09:29:42;;;;;;;1.75;1.30;;;;;;;;;;6187386;23;20494;-90
2023/09/19 09:32:20;;;;;;;2.70;1.15;;;;;;;;;;6189564;23;20020;-90
2023/09/19 09:34:51;;;;;;;5.03;1.27;;;;;;;;;;6187202;23;20023;-91
2023/09/19 09:37:20;;;;;;;1.92;1.17;;;;;;;;;;6162689;23;20021;-91
2023/09/19 09:39:53;;;;;;;2.55;1.08;;;;;;;;;;6162447;23;20020;-91
2023/09/19 09:42:32;;;;;;;;;;;;;;;;;;6187448;23;20024;-91
2023/09/19 09:45:16;;;;;;;2.40;1.70;;;;;;;;;;6223960;23;19920;-92
2023/09/19 09:47:53;;;;;;;2.55;1.50;;;;;;;;;;6222756;23;20016;-90
2023/09/19 09:50:39;;;;;;;2.05;1.73;;;;;;;;;;6162721;23;20024;-93
2023/09/19 09:53:21;;;;;;;4.30;2.10;;;;;;;;;;6162011;23;20017;-91
2023/09/19 09:56:05;;;;;;;2.83;1.20;;;;;;;;;;6196616;23;20424;-91
2023/09/19 09:58:35;;;;;;;3.53;1.58;;;;;;;;;;6186471;23;20040;-92
2023/09/19 10:01:10;;;;;;;2.47;1.35;;;;;;;;;;6161735;23;20088;-91
2023/09/19 10:03:41;;;;;;;2.63;2.13;;;;;;;;;;6162531;23;20028;-92
2023/09/19 10:06:25;;;;;;;3.28;1.08;;;;;;;;;;6213425;23;20025;-91
2023/09/19 10:09:10;;;;;;;2.08;1.10;;;;;;;;;;6161298;23;20023;-91
2023/09/19 10:11:44;;;;;;;3.88;1.75;;;;;;;;;;6186019;23;20032;-91
2023/09/19 10:14:13;;;;;;;3.50;1.65;;;;;;;;;;6187266;23;20023;-91
2023/09/19 10:16:47;;;;;;;8.45;1.58;;;;;;;;;;6196696;23;20012;-91
2023/09/19 10:19:22;;;;;;;2.38;1.40;;;;;;;;;;6197777;23;20039;-94
2023/09/19 10:21:55;;;;;;;3.42;1.40;;;;;;;;;;6187546;23;20020;-92
2023/09/19 10:24:24;;;;;;;3.08;1.35;;;;;;;;;;6187763;23;20021;-91
2023/09/19 10:26:54;;;;;;;2.63;1.38;;;;;;;;;;6185674;23;20502;-91
2023/09/19 10:29:22;;;;;;;3.38;1.60;;;;;;;;;;6186457;23;20367;-92
2023/09/19 10:31:51;;;;;;;2.72;1.40;;;;;;;;;;6187375;23;20009;-92
2023/09/19 10:34:22;;;;;;;6.10;2.20;;;;;;;;;;6196891;23;20024;-90
2023/09/19 10:36:49;;;;;;;2.50;1.80;;;;;;;;;;6212747;23;20016;-91
2023/09/19 10:39:19;;;;;;;3.85;1.42;;;;;;;;;;6187029;23;20013;-91
2023/09/19 10:41:54;;;;;;;3.13;1.55;;;;;;;;;;6192889;23;20017;-91
2023/09/19 10:44:25;;;;;;;2.75;2.13;;;;;;;;;;6206484;23;20023;-92
2023/09/19 10:46:53;;;;;;;1.88;1.58;;;;;;;;;;6201364;23;20468;-91
2023/09/19 10:49:24;;;;;;;2.00;1.40;;;;;;;;;;6209228;23;20012;-91
2023/09/19 10:51:58;;;;;;;6.55;1.75;;;;;;;;;;6192676;23;20031;-91
2023/09/19 10:54:28;;;;;;;2.53;1.40;;;;;;;;;;6161501;23;20059;-91
2023/09/19 10:57:01;;;;;;;2.70;2.08;;;;;;;;;;6185650;23;20025;-92
2023/09/19 10:59:34;;;;;;;1.73;1.38;;;;;;;;;;6185381;23;20031;-91
2023/09/19 11:02:17;;;;;;;4.47;1.90;;;;;;;;;;6213528;23;20518;-91
2023/09/19 11:04:50;;;;;;;1.40;1.00;;;;;;;;;;6185605;23;20027;-91
2023/09/19 11:07:21;;;;;;;2.42;1.50;;;;;;;;;;6213058;23;20040;-90
2023/09/19 11:09:53;;;;;;;1.98;1.25;;;;;;;;;;6212043;23;20029;-91
2023/09/19 11:12:50;;;;;;;4.63;1.75;;;;;;;;;;6186232;23;20020;-90
2023/09/19 11:16:14;;;;;;;3.30;1.08;;;;;;;;;;6186504;23;20013;-91
2023/09/19 11:18:57;;;;;;;2.40;1.40;;;;;;;;;;6075097;23;20154;-91
2023/09/19 11:21:49;;;;;;;2.78;1.42;;;;;;;;;;6066863;23;20025;-92
2023/09/19 11:24:35;;;;;;;6.50;2.00;;;;;;;;;;6173280;23;20351;-92
2023/09/19 11:27:17;;;;;;;2.08;1.50;;;;;;;;;;6165246;23;20039;-93
2023/09/19 11:29:46;;;;;;;4.20;1.50;;;;;;;;;;6195854;23;20023;-92
2023/09/19 11:32:17;;;;;;;2.03;1.83;;;;;;;;;;6160051;23;20035;-90
2023/09/19 11:34:52;;;;;;;1.33;0.80;;;;;;;;;;6161487;23;20020;-91
2023/09/19 11:38:16;;;;;;;2.72;1.05;;;;;;;;;;6196550;23;20023;-93
2023/09/19 11:40:55;;;;;;;2.28;1.38;;;;;;;;;;6186007;23;20024;-90
2023/09/19 11:43:33;;;;;;;4.70;1.40;;;;;;;;;;6160777;23;20017;-91
2023/09/19 11:46:10;;;;;;;2.65;1.20;;;;;;;;;;6162258;23;20229;-91
2023/09/19 11:48:43;;;;;;;3.25;1.27;;;;;;;;;;6226579;23;20008;-91
2023/09/19 11:51:19;;;;;;;;;;;;;;;;;;6178127;23;20027;-91
2023/09/19 11:53:49;;;;;;;3.90;1.23;;;;;;;;;;6198909;23;19926;-91
2023/09/19 11:56:21;;;;;;;1.50;1.23;;;;;;;;;;6188819;23;20043;-92
2023/09/19 11:58:53;;;;;;;2.20;1.40;;;;;;;;;;6170261;23;20044;-91
2023/09/19 12:01:24;;;;;;;3.17;1.42;;;;;;;;;;6161911;23;20479;-91
2023/09/19 12:03:59;;;;;;;4.07;1.30;;;;;;;;;;6186646;23;20017;-91
2023/09/19 12:06:29;;;;;;;2.70;1.30;;;;;;;;;;6187156;23;20024;-91
2023/09/19 12:08:58;;;;;;;3.95;1.85;;;;;;;;;;6162033;23;20020;-91
2023/09/19 12:11:33;;;;;;;3.17;1.50;;;;;;;;;;6189874;23;20514;-92
2023/09/19 12:14:06;;;;;;;4.13;1.48;;;;;;;;;;6222071;23;20021;-91
2023/09/19 12:16:38;;;;;;;3.13;1.48;;;;;;;;;;6186555;23;20016;-91
2023/09/19 12:19:20;;;;;;;2.15;1.20;;;;;;;;;;6184182;23;20019;-92
2023/09/19 12:21:57;;;;;;;4.47;1.60;;;;;;;;;;6190121;23;20020;-93
2023/09/19 12:24:29;;;;;;;1.52;1.15;;;;;;;;;;6187853;23;20263;-91
2023/09/19 12:27:05;;;;;;;2.75;1.80;;;;;;;;;;6201471;23;20020;-93
2023/09/19 12:29:48;;;;;;;2.03;1.40;;;;;;;;;;6202025;23;20013;-92
2023/09/19 12:32:19;;;;;;;2.13;1.33;;;;;;;;;;6165848;23;20024;-90
2023/09/19 12:34:54;;;;;;;2.65;1.48;;;;;;;;;;6195514;23;20032;-92
2023/09/19 12:37:29;;;;;;;1.83;1.20;;;;;;;;;;6189693;23;20464;-91
2023/09/19 12:40:14;;;;;;;5.50;2.20;;;;;;;;;;6187019;23;20013;-93
2023/09/19 12:42:45;;;;;;;3.58;1.40;;;;;;;;;;6164025;23;20363;-91
2023/09/19 12:45:15;;;;;;;2.70;2.08;;;;;;;;;;6162288;23;20016;-92
2023/09/19 12:48:31;;;;;;;1.63;1.02;;;;;;;;;;6187294;23;20027;-91
2023/09/19 12:51:05;;;;;;;2.10;1.05;;;;;;;;;;6186932;23;20016;-91
2023/09/19 12:53:37;;;;;;;1.77;1.08;;;;;;;;;;6186890;23;20475;-92
2023/09/19 12:56:09;;;;;;;1.73;1.30;;;;;;;;;;6167172;23;20020;-91
2023/09/19 12:58:49;;;;;;;2.42;1.60;;;;;;;;;;6188185;23;20013;-91
2023/09/19 13:01:18;;;;;;;4.97;1.77;;;;;;;;;;6188603;23;20039;-91
2023/09/19 13:03:45;;;;;;;3.67;1.52;;;;;;;;;;6165438;23;20451;-92
2023/09/19 13:06:16;;;;;;;2.40;1.35;;;;;;;;;;6215820;23;20008;-93
2023/09/19 13:08:54;;;;;;;1.97;1.30;;;;;;;;;;6189086;23;20022;-91
2023/09/19 13:11:22;;;;;;;2.35;1.45;;;;;;;;;;6192216;23;20027;-90
2023/09/19 13:13:53;;;;;;;2.10;0.85;;;;;;;;;;6215742;23;20016;-92
2023/09/19 13:16:25;;;;;;;1.77;1.05;;;;;;;;;;6189406;23;20017;-91
2023/09/19 13:18:56;;;;;;;2.85;1.08;;;;;;;;;;6213916;23;20020;-91
2023/09/19 13:21:36;;;;;;;1.38;0.90;;;;;;;;;;6215128;23;20008;-93
2023/09/19 13:24:22;;;;;;;4.75;1.30;;;;;;;;;;6199150;23;20032;-92
2023/09/19 13:27:00;;;;;;;2.88;1.63;;;;;;;;;;6163815;23;20025;-91
2023/09/19 13:29:27;;;;;;;2.17;1.52;;;;;;;;;;6188047;23;20016;-92
2023/09/19 13:31:55;;;;;;;1.27;0.90;;;;;;;;;;6188482;23;20013;-92
2023/09/19 13:34:23;;;;;;;2.17;1.33;;;;;;;;;;6139008;23;20021;-93
2023/09/19 13:36:50;;;;;;;3.17;1.27;;;;;;;;;;6189725;23;20020;-92
2023/09/19 13:39:18;;;;;;;2.55;0.95;;;;;;;;;;6188357;23;20456;-91
2023/09/19 13:41:48;;;;;;;2.17;1.83;;;;;;;;;;6188225;23;20589;-93
2023/09/19 13:44:17;;;;;;;5.28;1.38;;;;;;;;;;6188095;23;20035;-93
2023/09/19 13:46:46;;;;;;;2.10;1.08;;;;;;;;;;6213771;23;20016;-92
2023/09/19 13:49:17;;;;;;;2.08;1.40;;;;;;;;;;6163733;23;20017;-92
2023/09/19 13:51:45;;;;;;;3.13;1.20;;;;;;;;;;6188015;23;20028;-92
2023/09/19 13:54:15;;;;;;;4.90;1.63;;;;;;;;;;6188818;23;20021;-92
2023/09/19 13:56:42;;;;;;;4.82;1.70;;;;;;;;;;6188591;23;20017;-91
2023/09/19 13:59:11;;;;;;;2.10;1.42;;;;;;;;;;6165566;23;20024;-93
2023/09/19 14:01:39;;;;;;;5.63;1.30;;;;;;;;;;6213800;23;20024;-93
2023/09/19 14:04:07;;;;;;;1.33;1.10;;;;;;;;;;6163685;23;20016;-92
2023/09/19 14:06:37;;;;;;;6.55;1.23;;;;;;;;;;6163092;23;20017;-93
2023/09/19 14:09:08;;;;;;;2.35;1.15;;;;;;;;;;6218321;23;20016;-91
2023/09/19 14:11:35;;;;;;;2.45;1.00;;;;;;;;;;6188412;23;20021;-93
2023/09/19 14:14:04;;;;;;;1.00;0.70;;;;;;;;;;6163532;23;20017;-94
2023/09/19 14:16:36;;;;;;;1.92;1.35;;;;;;;;;;6215924;23;20021;-95
2023/09/19 14:19:05;;;;;;;2.08;1.17;;;;;;;;;;6186682;23;20027;-92
2023/09/19 14:21:32;;;;;;;14.93;1.52;;;;;;;;;;6188368;23;20013;-93
2023/09/19 14:24:00;;;;;;;6.57;1.42;;;;;;;;;;6226239;23;20416;-92
2023/09/19 14:26:27;;;;;;;2.65;1.30;;;;;;;;;;6189085;23;20036;-92
2023/09/19 14:28:57;;;;;;;2.15;1.05;;;;;;;;;;6190148;23;20017;-94
2023/09/19 14:31:25;;;;;;;1.38;1.10;;;;;;;;;;6189174;23;20013;-94
2023/09/19 14:33:59;;;;;;;1.48;0.98;;;;;;;;;;6186716;23;20017;-91
2023/09/19 14:36:28;;;;;;;2.47;1.50;;;;;;;;;;6163521;23;20364;-92
2023/09/19 14:38:56;;;;;;;1.55;0.77;;;;;;;;;;6214520;23;20478;-92
2023/09/19 14:41:25;;;;;;;1.98;1.48;;;;;;;;;;6215099;23;20013;-93
2023/09/19 14:43:53;;;;;;;4.28;1.17;;;;;;;;;;6162989;23;20027;-92
2023/09/19 14:46:24;;;;;;;2.58;1.15;;;;;;;;;;6188790;23;20019;-93
2023/09/19 14:48:54;;;;;;;4.43;1.10;;;;;;;;;;6163043;23;20020;-94
2023/09/19 14:51:24;;;;;;;1.98;1.00;;;;;;;;;;6163442;23;20024;-91
2023/09/19 14:53:51;;;;;;;2.97;1.20;;;;;;;;;;6161910;23;20028;-92
2023/09/19 14:56:19;;;;;;;4.30;1.45;;;;;;;;;;6189274;23;20020;-93
2023/09/19 14:58:50;;;;;;;1.20;1.10;;;;;;;;;;6187480;23;20032;-93
2023/09/19 15:01:17;;;;;;;1.23;0.95;;;;;;;;;;6186063;23;20020;-92
2023/09/19 15:03:46;;;;;;;3.60;1.05;;;;;;;;;;6163729;23;20020;-94
2023/09/19 15:06:16;;;;;;;1.85;1.10;;;;;;;;;;6199260;23;20498;-93
2023/09/19 15:08:47;;;;;;;1.00;0.70;;;;;;;;;;6187040;23;20017;-92